• Join FlightAware (Why Join?)
  • Login
  • US Flag 
04:04AM EDT


 

Airport Tracker/Info


-or-


 

Live Flight TrackerFlight Track Log ✈ JBU125 ✈ 12-Mar-2012 ✈ KJFK - KFLL

Flight Track Log - Related Links

Times and Time Zones

All times are in EDT time to prevent confusion due to time zone crossing. See the JBU125 flight status page for this flight to view local times or setup timezone preferences in your user account.

Time Position Orientation Groundspeed Altitude Reporting Facility
EDT Latitude Longitude Course Direction KTS MPH feet Rate Location/Type
06:24AM 40.6140 -73.7473 272° West  Level FlightAware Approximate
06:25AM 40.5201 -73.6568 306° West  Level FlightAware Approximate
06:25AM 40.6167 -73.8333 139° Southeast 200 230 2,500  Level New York TRACON
06:27AM 40.5144 -73.7167 140° Southeast 259 298 8,000 2,400 Climbing New York Center
06:28AM 40.4536 -73.6486 139° Southeast 271 312 9,600 1,500 Climbing New York Center
06:29AM 40.3828 -73.5667 165° South 324 373 11,100 1,500 Climbing New York Center
06:30AM 40.2794 -73.5297 180° South 365 420 12,600 1,860 Climbing New York Center
06:31AM 40.1647 -73.5306 183° South 403 464 14,800 1,740 Climbing New York Center
06:34AM 39.8794 -73.5528 216° Southwest 431 496 18,700 1,560 Climbing Washington Center
06:35AM 39.7831 -73.6447 217° Southwest 419 482 20,400 1,440 Climbing Washington Center
06:36AM 39.6764 -73.7500 219° Southwest 431 496 21,700 1,200 Climbing Washington Center
06:37AM 39.5800 -73.8522 217° Southwest 442 509 22,900 1,140 Climbing Washington Center
06:38AM 39.4772 -73.9542 218° Southwest 459 528 24,000 900 Climbing Washington Center
06:39AM 39.3722 -74.0586 221° Southwest 464 534 24,800 840 Climbing Washington Center
06:40AM 39.2736 -74.1706 220° Southwest 471 542 25,700 1,260 Climbing Washington Center
06:41AM 39.1708 -74.2825 220° Southwest 476 548 27,400 1,500 Climbing Washington Center
06:42AM 39.0719 -74.3883 220° Southwest 476 548 28,800 1,080 Climbing Washington Center
06:43AM 38.9728 -74.4942 208° Southwest 476 548 29,600 840 Climbing Washington Center
06:44AM 38.8547 -74.5761 203° Southwest 476 548 30,500 840 Climbing Washington Center
06:45AM 38.7303 -74.6442 206° Southwest 482 555 31,400 1,080 Climbing Washington Center
06:46AM 38.6056 -74.7203 203° Southwest 493 567 32,700 1,140 Climbing Washington Center
06:47AM 38.4831 -74.7881 206° Southwest 493 567 33,700 600 Climbing Washington Center
06:48AM 38.3647 -74.8608 203° Southwest 481 554 34,000 120 Climbing Washington Center
06:49AM 38.2464 -74.9256 206° Southwest 476 548 34,000  Level Washington Center
06:50AM 38.1278 -74.9978 205° Southwest 476 548 34,000  Level Washington Center
06:51AM 38.0072 -75.0700 203° Southwest 476 548 34,000  Level Washington Center
06:52AM 37.8864 -75.1339 206° Southwest 476 548 34,000  Level Washington Center
06:53AM 37.7678 -75.2056 204° Southwest 481 554 34,000  Level Washington Center
06:54AM 37.6472 -75.2719 204° Southwest 481 554 34,000  Level Washington Center
06:55AM 37.5264 -75.3406 203° Southwest 481 554 34,000  Level Washington Center
06:56AM 37.4056 -75.4061 205° Southwest 481 554 34,000  Level Washington Center
06:57AM 37.2844 -75.4769 203° Southwest 481 554 34,000  Level Washington Center
06:58AM 37.1658 -75.5397 204° Southwest 481 554 34,000  Level Washington Center
06:59AM 37.0469 -75.6075 204° Southwest 481 554 34,000  Level Washington Center
07:00AM 36.9278 -75.6750 202° Southwest 481 554 34,000  Level Washington Center
07:01AM 36.8214 -75.7294 204° Southwest 481 554 34,000  Level Washington Center
07:02AM 36.6983 -75.7992 204° Southwest 481 554 34,000  Level Washington Center
07:03AM 36.5792 -75.8661 204° Southwest 481 554 34,000  Level Washington Center
07:04AM 36.4581 -75.9328 205° Southwest 481 554 34,000  Level Washington Center
07:05AM 36.3411 -75.9994 203° Southwest 481 554 34,000  Level Washington Center
07:06AM 36.2219 -76.0631 203° Southwest 481 554 34,000  Level Washington Center
07:07AM 36.1006 -76.1267 205° Southwest 481 554 34,000  Level Washington Center
07:08AM 35.9814 -76.1953 204° Southwest 481 554 34,000  Level Washington Center
07:09AM 35.8619 -76.2611 204° Southwest 481 554 34,000  Level Washington Center
07:10AM 35.7428 -76.3264 201° Southwest 481 554 34,000  Level Washington Center
07:11AM 35.6214 -76.3842 205° Southwest 476 548 34,000  Level Washington Center
07:12AM 35.5042 -76.4519 203° Southwest 476 548 34,000  Level Washington Center
07:13AM 35.3847 -76.5144 203° Southwest 476 548 34,000  Level Washington Center
07:14AM 35.2694 -76.5742 204° Southwest 465 535 34,000  Level Washington Center
07:15AM 35.1458 -76.6411 203° Southwest 465 535 34,000  Level Washington Center
07:16AM 35.0283 -76.7031 203° Southwest 465 535 34,000  Level Washington Center
07:17AM 34.9089 -76.7647 204° Southwest 465 535 34,000  Level Washington Center
07:18AM 34.7914 -76.8289 203° Southwest 465 535 34,000  Level Washington Center
07:19AM 34.6697 -76.8925 203° Southwest 465 535 34,000  Level Washington Center
07:20AM 34.5500 -76.9539 204° Southwest 465 535 34,000  Level Washington Center
07:21AM 34.4325 -77.0172 202° Southwest 465 535 34,000  Level Washington Center
07:22AM 34.3108 -77.0756 204° Southwest 465 535 34,000  Level Washington Center
07:23AM 34.1911 -77.1386 203° Southwest 470 541 34,000  Level Washington Center
07:24AM 34.0608 -77.2039 203° Southwest 470 541 34,000  Level Washington Center
07:25AM 33.9411 -77.2642 203° Southwest 470 541 34,000  Level Washington Center
07:26AM 33.8303 -77.3203 203° Southwest 472 543 34,000  Level Jacksonville Center
07:27AM 33.7117 -77.3803 204° Southwest 472 543 34,000  Level Jacksonville Center
07:28AM 33.5833 -77.4481 203° Southwest 467 537 34,000  Level Jacksonville Center
07:29AM 33.4647 -77.5075 203° Southwest 467 537 34,000  Level Jacksonville Center
07:30AM 33.3483 -77.5667 203° Southwest 467 537 34,000  Level Jacksonville Center
07:31AM 33.2319 -77.6258 203° Southwest 467 537 34,000  Level Jacksonville Center
07:32AM 33.1156 -77.6847 203° Southwest 462 532 34,000  Level Jacksonville Center
07:33AM 32.9989 -77.7436 204° Southwest 462 532 34,000  Level Jacksonville Center
07:34AM 32.8825 -77.8047 202° Southwest 462 532 34,000  Level Jacksonville Center
07:35AM 32.7658 -77.8606 204° Southwest 462 532 34,000  Level Jacksonville Center
07:36AM 32.6492 -77.9214 201° Southwest 467 537 34,000  Level Jacksonville Center
07:37AM 32.5322 -77.9747 204° Southwest 467 537 34,000  Level Jacksonville Center
07:38AM 32.4156 -78.0350 204° Southwest 467 537 34,000  Level Jacksonville Center
07:39AM 32.2989 -78.0953 203° Southwest 467 537 34,000  Level Jacksonville Center
07:40AM 32.1822 -78.1531 201° Southwest 467 537 34,000  Level Jacksonville Center
07:41AM 32.0631 -78.2058 203° Southwest 461 531 34,000 -60 Level Jacksonville Center
07:42AM 31.9506 -78.2628 203° Southwest 461 531 33,900  Descending Jacksonville Center
07:43AM 31.8356 -78.3200 202° Southwest 456 525 34,000  Climbing Jacksonville Center
07:44AM 31.7167 -78.3772 203° Southwest 456 525 34,000  Level Jacksonville Center
07:45AM 31.5975 -78.4367 200° South 456 525 34,000  Level Jacksonville Center
07:46AM 31.4825 -78.4858 202° Southwest 464 534 34,000  Level Jacksonville Center
07:47AM 31.3675 -78.5400 204° Southwest 445 512 34,000  Level Jacksonville Center
07:48AM 31.2444 -78.6039 203° Southwest 454 522 34,000  Level Jacksonville Center
07:49AM 31.1233 -78.6653 199° South 447 514 34,000  Level Jacksonville Center
07:50AM 31.0100 -78.7117 203° Southwest 476 548 34,000 -60 Level Jacksonville Center
07:51AM 30.8908 -78.7703 202° Southwest 484 557 33,900  Descending Jacksonville Center
07:52AM 30.7736 -78.8261 203° Southwest 476 548 34,000  Climbing Jacksonville Center
07:53AM 30.5844 -78.9175 201° Southwest 460 529 33,900  Descending Miami Center
07:54AM 30.4606 -78.9728 197° South 460 529 34,000  Climbing Miami Center
07:55AM 30.3411 -79.0161 193° South 460 529 34,000  Level Miami Center
07:56AM 30.2197 -79.0497 193° South 453 521 34,000  Level Miami Center
07:57AM 30.0983 -79.0808 195° South 453 521 34,000  Level Miami Center
07:58AM 29.9831 -79.1167 192° South 447 514 34,000  Level Miami Center
07:59AM 29.8639 -79.1453 191° South 442 509 34,000  Level Miami Center
08:00AM 29.7444 -79.1714 194° South 435 501 34,000  Level Miami Center
08:01AM 29.6292 -79.2047 193° South 435 501 34,000 -120 Level Miami Center
08:02AM 29.5100 -79.2356 193° South 430 495 33,800 -600 Descending Miami Center
08:03AM 29.3906 -79.2664 192° South 438 504 32,900 -960 Descending Miami Center
08:04AM 29.2733 -79.2947 191° South 432 497 31,900 -960 Descending Miami Center
08:05AM 29.1517 -79.3231 193° South 439 505 31,000 -480 Descending Miami Center
08:06AM 29.0322 -79.3558 194° South 444 511 31,000  Level Miami Center
08:07AM 28.9128 -79.3911 226° Southwest 444 511 31,000  Level Miami Center
08:08AM 28.8317 -79.4864 230° Southwest 420 483 31,000  Level Miami Center
08:09AM 28.7567 -79.5889 231° Southwest 414 476 31,000  Level Miami Center
08:10AM 28.6839 -79.6911 230° Southwest 419 482 31,000  Level Miami Center
08:11AM 28.6067 -79.7956 199° South 429 494 31,000  Level Miami Center
08:12AM 28.4908 -79.8397 177° South 422 486 31,000  Level Miami Center
08:13AM 28.3639 -79.8317 179° South 417 480 31,000  Level Miami Center
08:14AM 28.2511 -79.8286 177° South 447 514 31,000  Level Miami Center
08:15AM 28.1197 -79.8206 178° South 459 528 31,000  Level Miami Center
08:16AM 27.9925 -79.8150 176° South 465 535 31,000 -480 Level Miami Center
08:17AM 27.8550 -79.8042 178° South 455 524 30,100 -1,200 Descending Miami Center
08:18AM 27.7403 -79.7989 178° South 455 524 28,700 -1,500 Descending Miami Center
08:19AM 27.6111 -79.7933 177° South 460 529 27,200 -1,500 Descending Miami Center
08:20AM 27.4733 -79.7850 178° South 460 529 25,700 -1,260 Descending Miami Center
08:21AM 27.3544 -79.7797 169° South 448 516 24,700 -1,440 Descending Miami Center
08:22AM 27.2400 -79.7558 164° South 427 491 22,900 -1,860 Descending Miami Center
08:23AM 27.1447 -79.7256 165° South 405 466 21,000 -1,800 Descending Miami Center
08:24AM 27.0492 -79.6975 165° South 372 428 19,400 -2,220 Descending Miami Center
08:25AM 26.9517 -79.6672 165° South 338 389 16,600 -2,400 Descending Miami Center
08:26AM 26.8603 -79.6392 200° South 329 379 14,600 -1,860 Descending Miami Center
08:27AM 26.7758 -79.6744 201° Southwest 296 341 12,900 -1,620 Descending Miami Center
08:28AM 26.6939 -79.7097 205° Southwest 318 366 11,500 -1,440 Descending Miami Center
08:29AM 26.6178 -79.7497 201° Southwest 308 354 10,100 -1,440 Descending Miami Center
08:30AM 26.5400 -79.7828 203° Southwest 308 354 8,600 -1,380 Descending Miami Center
08:31AM 26.4978 -79.8025 204° Southwest 293 337 8,100 -600 Descending Miami Center
08:31AM 26.4661 -79.8181 204° Southwest 299 344 8,000 -120 Descending Miami Center
08:32AM 26.4217 -79.8400 213° Southwest 288 331 8,000  Level Miami Center
08:33AM 26.3475 -79.8939 220° Southwest 287 330 8,000 -240 Level Miami Center
08:34AM 26.2942 -79.9433 220° Southwest 250 288 7,600 -420 Descending Miami Center
08:35AM 26.2453 -79.9886 222° Southwest 242 278 7,200 -360 Descending Miami Center
08:36AM 26.1942 -80.0406 240° Southwest 244 281 7,000 -120 Descending Miami Center
08:37AM 26.1656 -80.0953 256° West 223 257 7,000  Level Miami Center
08:38AM 26.1494 -80.1689 271° West 220 253 7,000 -120 Level Miami Center
08:39AM 26.1500 -80.2289 270° West 218 251 6,800 -480 Descending Miami Center
08:40AM 26.1503 -80.3169 268° West 217 250 6,000 -420 Descending Miami Center
08:41AM 26.1489 -80.3700 271° West 207 238 6,000 -420 Level Miami Center
08:42AM 26.1497 -80.4281 253° West 204 235 5,300 -540 Descending Miami Center
08:43AM 26.1336 -80.4878 151° Southeast 204 235 5,000 -240 Descending Miami Center
08:44AM 26.0903 -80.4608 109° East 170 196 4,900 -600 Descending Miami Center
08:45AM 26.0747 -80.4094 88° East 168 193 3,800 -960 Descending Miami Center
08:46AM 26.0758 -80.3681 91° East 160 184 3,100 -660 Descending Miami Center
08:47AM 26.0750 -80.3147 91° East 163 188 2,600 -720 Descending Miami Center
08:48AM 26.0742 -80.2617 89° East 157 181 1,600 -840 Descending Miami Center
08:49AM 26.0753 -80.2131 89° East 128 147 800 -720 Descending Miami Center